Time;durP1;ratioP1;P1;durP2;ratioP2;P2;SDS_P1;SDS_P2;PMS_P1;PMS_P2;Temp;Humidity;BMP_temperature;BMP_pressure;BME280_temperature;BME280_humidity;BME280_pressure;Samples;Min_cycle;Max_cycle;Signal;HPM_P1;HPM_P2
2022/01/18 00:01:11;;;;;;;40.72;5.97;;;6.30;99.90;;;;;;6219376;23;20027;-79
2022/01/18 00:03:36;;;;;;;42.47;7.60;;;6.30;99.90;;;;;;6219266;23;20336;-81
2022/01/18 00:06:03;;;;;;;37.65;6.07;;;6.30;99.90;;;;;;6219068;23;20016;-81
2022/01/18 00:08:29;;;;;;;41.10;6.60;;;6.30;99.90;;;;;;6219330;23;20020;-80
2022/01/18 00:10:54;;;;;;;46.88;6.72;;;6.30;99.90;;;;;;6219162;23;20018;-80
2022/01/18 00:13:36;;;;;;;37.17;6.80;;;6.40;99.90;;;;;;6219214;23;20091;-80
2022/01/18 00:18:36;;;;;;;41.05;5.78;;;6.50;99.90;;;;;;6220981;23;20083;-80
2022/01/18 00:23:36;;;;;;;42.67;6.25;;;6.40;99.90;;;;;;6220941;23;20024;-80
2022/01/18 00:26:03;;;;;;;37.47;6.03;;;6.40;99.90;;;;;;6220936;23;20012;-80
2022/01/18 00:28:30;;;;;;;44.30;7.00;;;6.40;99.90;;;;;;6220962;23;20091;-80
2022/01/18 00:31:26;;;;;;;46.63;6.20;;;6.40;99.90;;;;;;6220844;23;20318;-80
2022/01/18 00:36:29;;;;;;;32.83;5.60;;;6.50;99.90;;;;;;6248078;23;20020;-81
2022/01/18 00:38:56;;;;;;;39.63;6.47;;;6.50;99.90;;;;;;6247719;23;20058;-80
2022/01/18 00:41:25;;;;;;;31.83;5.57;;;6.50;99.90;;;;;;6220744;23;20023;-81
2022/01/18 00:43:52;;;;;;;42.05;4.78;;;6.50;99.90;;;;;;6220766;23;20444;-81
2022/01/18 00:46:18;;;;;;;31.05;5.72;;;6.50;99.90;;;;;;6220718;23;20038;-80
2022/01/18 00:48:44;;;;;;;25.75;4.45;;;6.50;99.90;;;;;;6220774;23;20020;-80
2022/01/18 00:51:13;;;;;;;39.78;6.63;;;6.50;99.90;;;;;;6247893;23;20016;-80
2022/01/18 00:53:41;;;;;;;30.23;4.90;;;6.50;99.90;;;;;;6247574;23;20016;-80
2022/01/18 00:58:33;;;;;;;42.20;5.72;;;6.40;99.90;;;;;;6220735;23;20049;-80
2022/01/18 01:00:59;;;;;;;29.95;4.82;;;6.40;99.90;;;;;;6220435;23;20533;-79
2022/01/18 01:03:25;;;;;;;37.80;6.70;;;6.40;99.90;;;;;;6220521;23;20013;-79
2022/01/18 01:05:51;;;;;;;65.53;9.10;;;6.40;99.90;;;;;;6220235;23;20386;-79
2022/01/18 01:08:16;;;;;;;41.42;6.50;;;6.40;99.90;;;;;;6247667;23;20021;-79
2022/01/18 01:10:43;;;;;;;51.00;6.97;;;6.40;99.90;;;;;;6220487;23;20012;-79
2022/01/18 01:13:10;;;;;;;36.17;5.45;;;6.40;99.90;;;;;;6220352;23;20070;-79
2022/01/18 01:15:52;;;;;;;40.25;5.15;;;6.40;99.90;;;;;;6220859;23;20058;-79
2022/01/18 01:19:11;;;;;;;33.75;5.82;;;6.40;99.90;;;;;;6220529;23;20008;-79
2022/01/18 01:45:29;;;;;;;21.80;3.38;;;6.40;99.90;;;;;;6220071;23;20054;-80
2022/01/18 01:47:56;;;;;;;36.30;5.75;;;6.40;99.90;;;;;;6220077;23;20016;-80
2022/01/18 01:50:24;;;;;;;24.40;4.10;;;6.40;99.90;;;;;;6247274;23;20043;-80
2022/01/18 01:52:54;;;;;;;24.38;4.60;;;6.40;99.90;;;;;;6247088;23;20051;-80
2022/01/18 01:55:20;;;;;;;73.43;17.30;;;6.40;99.90;;;;;;6219952;23;20056;-79
2022/01/18 01:57:46;;;;;;;40.42;9.95;;;6.40;99.90;;;;;;6219974;23;20024;-79
2022/01/18 02:00:19;;;;;;;23.08;3.40;;;6.50;99.90;;;;;;6219938;23;20022;-80
2022/01/18 02:02:45;;;;;;;22.65;3.50;;;6.40;99.90;;;;;;6220114;23;20459;-80
2022/01/18 02:05:11;;;;;;;25.98;3.70;;;6.50;99.90;;;;;;6219962;23;20468;-80
2022/01/18 02:07:37;;;;;;;17.13;2.83;;;6.50;99.90;;;;;;6219757;23;20098;-80
2022/01/18 02:10:07;;;;;;;26.75;3.58;;;6.40;99.90;;;;;;6219954;23;20046;-80
2022/01/18 02:12:42;;;;;;;31.45;6.22;;;6.50;99.90;;;;;;6246763;23;20047;-80
2022/01/18 02:15:17;;;;;;;13.68;2.60;;;6.50;99.90;;;;;;6246998;23;20012;-80
2022/01/18 02:23:25;;;;;;;20.35;2.53;;;6.60;99.90;;;;;;6219809;23;20027;-79
2022/01/18 02:25:50;;;;;;;23.30;3.78;;;6.60;99.90;;;;;;6246512;23;20470;-79
2022/01/18 02:28:21;;;;;;;20.17;2.58;;;6.60;99.90;;;;;;6219585;23;20040;-80
2022/01/18 02:30:47;;;;;;;17.85;2.75;;;6.60;99.90;;;;;;6219799;23;20383;-77
2022/01/18 02:33:14;;;;;;;14.52;2.92;;;6.60;99.90;;;;;;6247019;23;20443;-77
2022/01/18 02:35:40;;;;;;;10.43;1.75;;;6.60;99.90;;;;;;6220159;23;20027;-81
2022/01/18 02:38:06;;;;;;;14.43;1.80;;;6.60;99.90;;;;;;6219600;23;20166;-80
2022/01/18 02:40:32;;;;;;;13.80;2.05;;;6.50;99.90;;;;;;6246521;23;20431;-80
2022/01/18 02:43:46;;;;;;;12.65;2.10;;;6.50;99.90;;;;;;6219569;23;20313;-79
2022/01/18 02:45:47;;;;;;;12.57;2.15;;;6.50;99.90;;;;;;6246243;23;20024;-80
2022/01/18 02:48:13;;;;;;;14.77;2.47;;;6.50;99.90;;;;;;6219647;23;20012;-80
2022/01/18 02:50:39;;;;;;;16.50;2.20;;;6.50;99.90;;;;;;6219653;23;20020;-80
2022/01/18 02:53:05;;;;;;;12.50;1.85;;;6.50;99.90;;;;;;6246911;23;20423;-80
2022/01/18 02:55:30;;;;;;;14.50;2.20;;;6.60;99.90;;;;;;6219576;23;20452;-79
2022/01/18 02:58:03;;;;;;;15.93;2.85;;;6.60;99.90;;;;;;6219530;23;20087;-79
2022/01/18 03:03:10;;;;;;;11.30;1.85;;;6.60;99.90;;;;;;6220599;23;20020;-82
2022/01/18 03:03:21;;;;;;;13.50;1.67;;;6.50;99.90;;;;;;6219825;23;20020;-80
2022/01/18 03:05:47;;;;;;;17.65;2.85;;;6.50;99.90;;;;;;6219265;23;20020;-80
2022/01/18 03:08:13;;;;;;;17.67;1.83;;;6.50;99.90;;;;;;6219544;23;20017;-80
2022/01/18 03:10:40;;;;;;;13.52;2.47;;;6.50;99.90;;;;;;6220186;23;20012;-80
2022/01/18 03:13:06;;;;;;;23.30;3.13;;;6.50;99.90;;;;;;6219410;23;20016;-80
2022/01/18 03:15:33;;;;;;;17.30;2.97;;;6.50;99.90;;;;;;6219513;23;20012;-80
2022/01/18 03:18:00;;;;;;;15.48;2.95;;;6.50;99.90;;;;;;6246520;23;20082;-80
2022/01/18 03:20:26;;;;;;;9.48;2.00;;;6.60;99.90;;;;;;6246464;23;20026;-80
2022/01/18 03:22:52;;;;;;;15.00;2.10;;;6.60;99.90;;;;;;6219489;23;20019;-80
2022/01/18 03:25:38;;;;;;;11.80;1.92;;;6.60;99.90;;;;;;6219476;23;20044;-80
2022/01/18 03:28:07;;;;;;;13.93;2.80;;;6.60;99.90;;;;;;6219374;23;20016;-80
2022/01/18 03:30:40;;;;;;;8.68;1.27;;;6.60;99.90;;;;;;6219470;23;20020;-80
2022/01/18 03:33:10;;;;;;;13.02;2.10;;;6.60;99.90;;;;;;6219413;23;20440;-80
2022/01/18 03:35:36;;;;;;;10.38;1.77;;;6.70;99.90;;;;;;6219454;23;20020;-80
2022/01/18 03:38:02;;;;;;;10.18;1.50;;;6.80;99.90;;;;;;6219393;23;20016;-80
2022/01/18 03:40:28;;;;;;;7.13;1.48;;;6.80;99.90;;;;;;6219283;23;20091;-80
2022/01/18 03:42:56;;;;;;;11.63;2.35;;;6.90;99.90;;;;;;6219339;23;20055;-80
2022/01/18 03:45:29;;;;;;;15.45;2.05;;;6.80;99.90;;;;;;6219282;23;20432;-80
2022/01/18 03:47:58;;;;;;;9.65;1.50;;;6.80;99.90;;;;;;6219478;23;20027;-80
2022/01/18 03:50:24;;;;;;;11.55;1.65;;;6.80;99.90;;;;;;6247096;23;20050;-81
2022/01/18 03:52:50;;;;;;;8.93;1.08;;;6.80;99.90;;;;;;6248117;23;20024;-80
2022/01/18 03:55:20;;;;;;;10.07;2.22;;;6.80;99.90;;;;;;6221214;23;20062;-80
2022/01/18 03:57:45;;;;;;;11.50;1.00;;;6.80;99.90;;;;;;6248316;23;20027;-80
2022/01/18 04:00:15;;;;;;;7.38;1.10;;;6.90;99.90;;;;;;6221172;23;20099;-80
2022/01/18 04:02:40;;;;;;;6.97;1.05;;;6.90;99.90;;;;;;6221552;23;20329;-80
2022/01/18 04:05:07;;;;;;;6.78;1.05;;;6.90;99.90;;;;;;6248319;23;20051;-80
2022/01/18 04:07:32;;;;;;;8.35;1.35;;;6.90;99.90;;;;;;6248427;23;20104;-80
2022/01/18 04:09:58;;;;;;;10.10;1.40;;;6.80;99.90;;;;;;6248247;23;20452;-80
2022/01/18 04:12:24;;;;;;;9.55;2.00;;;6.80;99.90;;;;;;6221065;23;20024;-80
2022/01/18 04:14:49;;;;;;;10.07;1.23;;;6.80;99.90;;;;;;6221119;23;20432;-80
2022/01/18 04:17:31;;;;;;;13.52;1.02;;;6.80;99.90;;;;;;6248216;23;20062;-80
2022/01/18 04:28:22;;;;;;;6.47;0.90;;;6.70;99.90;;;;;;6220868;23;20028;-81
2022/01/18 04:30:48;;;;;;;3.63;0.82;;;6.60;99.90;;;;;;6220971;23;20020;-80
2022/01/18 04:33:15;;;;;;;7.82;1.48;;;6.60;99.90;;;;;;6220769;23;20016;-80
2022/01/18 04:35:41;;;;;;;12.82;1.90;;;6.60;99.90;;;;;;6220813;23;20073;-80
2022/01/18 04:38:07;;;;;;;7.97;1.55;;;6.50;99.90;;;;;;6220820;23;20099;-77
2022/01/18 04:40:33;;;;;;;8.57;1.60;;;6.50;99.90;;;;;;6220637;23;20366;-77
2022/01/18 04:43:10;;;;;;;6.07;1.35;;;6.50;99.90;;;;;;6220819;23;20027;-77
2022/01/18 04:48:35;;;;;;;9.32;1.70;;;6.40;99.90;;;;;;6220723;23;20027;-81
2022/01/18 04:51:11;;;;;;;9.40;1.63;;;6.30;99.90;;;;;;6220687;23;20091;-80
2022/01/18 04:53:42;;;;;;;9.32;1.30;;;6.30;99.90;;;;;;6220748;23;20099;-80
2022/01/18 04:56:14;;;;;;;12.52;1.70;;;6.30;99.90;;;;;;6220756;23;20027;-79
2022/01/18 04:58:40;;;;;;;6.65;1.77;;;6.30;99.90;;;;;;6247896;23;20093;-79
2022/01/18 05:01:07;;;;;;;10.25;1.50;;;6.20;99.90;;;;;;6220519;23;20016;-79
2022/01/18 05:03:34;;;;;;;5.70;1.10;;;6.20;99.90;;;;;;6220352;23;20048;-79
2022/01/18 05:06:07;;;;;;;10.35;1.55;;;6.20;99.90;;;;;;6220278;23;20051;-79
2022/01/18 05:08:33;;;;;;;9.57;1.30;;;6.10;99.90;;;;;;6220622;23;20012;-79
2022/01/18 05:10:59;;;;;;;12.55;1.73;;;6.10;99.90;;;;;;6220518;23;20400;-80
2022/01/18 05:16:07;;;;;;;12.07;2.35;;;6.00;99.90;;;;;;6220451;23;20016;-80
2022/01/18 05:23:36;;;;;;;8.32;1.65;;;6.00;99.90;;;;;;6247158;23;20466;-80
2022/01/18 05:26:02;;;;;;;20.13;2.53;;;6.00;99.90;;;;;;6220336;23;20020;-80
2022/01/18 05:28:27;;;;;;;18.27;2.13;;;5.90;99.90;;;;;;6220319;23;20048;-80
2022/01/18 05:30:53;;;;;;;9.65;1.70;;;5.90;99.90;;;;;;6247386;23;20092;-80
2022/01/18 05:33:21;;;;;;;20.35;3.70;;;5.90;99.90;;;;;;6247483;23;20012;-80
2022/01/18 05:35:47;;;;;;;25.05;2.20;;;5.90;99.90;;;;;;6220201;23;20016;-80
2022/01/18 05:38:13;;;;;;;12.25;2.42;;;5.90;99.90;;;;;;6247006;23;20344;-80
2022/01/18 05:40:39;;;;;;;8.82;1.80;;;5.90;99.90;;;;;;6220183;23;20543;-80
2022/01/18 05:43:05;;;;;;;11.73;1.92;;;5.80;99.90;;;;;;6220258;23;20020;-80
2022/01/18 05:45:31;;;;;;;13.48;1.80;;;5.80;99.90;;;;;;6247004;23;20055;-79
2022/01/18 05:47:57;;;;;;;18.02;2.05;;;5.80;99.90;;;;;;6247334;23;20016;-80
2022/01/18 05:50:22;;;;;;;11.30;1.95;;;5.80;99.90;;;;;;6247325;23;20376;-80
2022/01/18 05:52:48;;;;;;;13.02;1.95;;;5.80;99.90;;;;;;6247253;23;20011;-80
2022/01/18 05:55:15;;;;;;;14.25;2.25;;;5.70;99.90;;;;;;6219963;23;20020;-80
2022/01/18 05:57:40;;;;;;;11.73;2.28;;;5.80;99.90;;;;;;6220065;23;20352;-80
2022/01/18 06:00:19;;;;;;;13.15;2.25;;;5.70;99.90;;;;;;6219901;23;20134;-77
2022/01/18 06:02:59;;;;;;;10.27;1.83;;;5.70;99.90;;;;;;6246845;23;20313;-77
2022/01/18 06:08:10;;;;;;;11.20;2.03;;;5.70;99.90;;;;;;6219934;23;20473;-77
2022/01/18 06:10:35;;;;;;;12.82;2.67;;;5.60;99.90;;;;;;6219924;23;20051;-77
2022/01/18 06:13:03;;;;;;;16.15;3.00;;;5.60;99.90;;;;;;6219728;23;20020;-77
2022/01/18 06:15:30;;;;;;;14.02;2.80;;;5.60;99.90;;;;;;6219603;23;20008;-77
2022/01/18 06:17:55;;;;;;;13.55;1.92;;;5.50;99.90;;;;;;6219883;23;20027;-77
2022/01/18 06:20:21;;;;;;;15.30;2.63;;;5.50;99.90;;;;;;6219811;23;20024;-77
2022/01/18 06:22:49;;;;;;;11.43;2.00;;;5.50;99.90;;;;;;6219910;23;20012;-77
2022/01/18 06:25:15;;;;;;;15.23;2.70;;;5.50;99.90;;;;;;6219905;23;20020;-77
2022/01/18 06:27:40;;;;;;;10.98;1.58;;;5.50;99.90;;;;;;6219817;23;20399;-77
2022/01/18 06:30:09;;;;;;;7.07;2.38;;;5.50;99.90;;;;;;6219851;23;20020;-77
2022/01/18 06:32:39;;;;;;;14.32;2.05;;;5.40;99.90;;;;;;6246659;23;20020;-77
2022/01/18 06:35:06;;;;;;;11.95;1.92;;;5.40;99.90;;;;;;6219697;23;20314;-77
2022/01/18 06:37:32;;;;;;;11.70;2.50;;;5.40;99.90;;;;;;6219634;23;20016;-77
2022/01/18 06:39:59;;;;;;;11.07;1.67;;;5.30;99.90;;;;;;6219668;23;20139;-77
2022/01/18 06:42:25;;;;;;;8.40;2.03;;;5.30;99.90;;;;;;6219637;23;20024;-77
2022/01/18 06:44:51;;;;;;;11.68;2.50;;;5.30;99.90;;;;;;6219703;23;20019;-77
2022/01/18 06:47:17;;;;;;;9.18;1.90;;;5.20;99.90;;;;;;6219686;23;20451;-77
2022/01/18 06:49:43;;;;;;;13.05;2.42;;;5.20;99.90;;;;;;6219676;23;20024;-77
2022/01/18 06:52:08;;;;;;;14.35;2.05;;;5.20;99.90;;;;;;6219811;23;20012;-77
2022/01/18 06:54:34;;;;;;;12.00;2.08;;;5.20;99.90;;;;;;6219526;23;20027;-77
2022/01/18 06:57:00;;;;;;;11.98;1.65;;;5.00;99.90;;;;;;6219637;23;20023;-77
2022/01/18 06:59:25;;;;;;;13.10;2.38;;;5.00;99.90;;;;;;6219566;23;20024;-77
2022/01/18 07:01:51;;;;;;;15.63;3.80;;;5.00;99.90;;;;;;6219551;23;20055;-77
2022/01/18 07:04:17;;;;;;;12.32;2.15;;;5.00;99.90;;;;;;6219488;23;20017;-77
2022/01/18 07:06:45;;;;;;;17.00;3.10;;;5.00;99.90;;;;;;6246248;23;20016;-77
2022/01/18 07:09:12;;;;;;;13.52;2.42;;;5.00;99.90;;;;;;6219506;23;20364;-77
2022/01/18 07:11:38;;;;;;;10.13;2.40;;;5.00;99.90;;;;;;6219573;23;20110;-77
2022/01/18 07:14:04;;;;;;;6.97;1.33;;;4.90;99.90;;;;;;6219554;23;20078;-77
2022/01/18 07:16:29;;;;;;;14.43;1.90;;;4.90;99.90;;;;;;6219435;23;20012;-77
2022/01/18 07:18:55;;;;;;;12.77;2.45;;;4.80;99.90;;;;;;6219508;23;20024;-77
2022/01/18 07:21:21;;;;;;;10.48;2.30;;;4.70;99.90;;;;;;6219177;23;20024;-77
2022/01/18 07:23:46;;;;;;;5.63;2.15;;;4.70;99.90;;;;;;6219197;23;20091;-77
2022/01/18 07:26:12;;;;;;;10.30;2.40;;;4.70;99.90;;;;;;6220482;23;20099;-77
2022/01/18 07:28:38;;;;;;;10.77;2.08;;;4.70;99.90;;;;;;6220942;23;20016;-77
2022/01/18 07:31:03;;;;;;;13.77;2.38;;;4.70;99.90;;;;;;6247461;23;20027;-77
2022/01/18 07:33:29;;;;;;;7.50;1.85;;;4.60;99.90;;;;;;6246359;23;20328;-77
2022/01/18 07:35:55;;;;;;;9.20;2.58;;;4.60;99.90;;;;;;6221293;23;20017;-77
2022/01/18 07:38:20;;;;;;;7.60;1.55;;;4.50;99.90;;;;;;6221324;23;20051;-77
2022/01/18 07:40:48;;;;;;;10.40;1.80;;;4.50;99.90;;;;;;6221156;23;20094;-77
2022/01/18 07:43:19;;;;;;;9.30;1.80;;;4.50;99.90;;;;;;6221288;23;20048;-77
2022/01/18 07:45:49;;;;;;;12.27;2.30;;;4.40;99.90;;;;;;6221176;23;20456;-77
2022/01/18 07:48:14;;;;;;;7.75;1.77;;;4.40;99.90;;;;;;6221208;23;20022;-77
2022/01/18 07:50:41;;;;;;;6.40;1.65;;;4.40;99.90;;;;;;6247347;23;20016;-77
2022/01/18 07:53:07;;;;;;;9.32;2.10;;;4.30;99.90;;;;;;6218022;23;20332;-76
2022/01/18 07:55:33;;;;;;;10.55;2.00;;;4.40;99.90;;;;;;6247922;23;20483;-76
2022/01/18 07:58:00;;;;;;;6.13;1.92;;;4.30;99.90;;;;;;6220918;23;20047;-77
2022/01/18 08:00:26;;;;;;;8.82;1.95;;;4.30;99.90;;;;;;6247669;23;20020;-76
2022/01/18 08:02:52;;;;;;;7.43;2.28;;;4.20;99.90;;;;;;6220812;23;20035;-76
2022/01/18 08:05:18;;;;;;;7.20;1.75;;;4.10;99.90;;;;;;6220799;23;20448;-77
2022/01/18 08:07:44;;;;;;;6.72;2.40;;;4.10;99.90;;;;;;6220885;23;20017;-77
2022/01/18 08:10:12;;;;;;;17.75;4.03;;;4.00;99.90;;;;;;6220719;23;20035;-77
2022/01/18 08:12:38;;;;;;;14.23;3.15;;;4.00;99.90;;;;;;6220659;23;20384;-77
2022/01/18 08:15:13;;;;;;;12.25;2.70;;;4.10;99.90;;;;;;6247897;23;20020;-78
2022/01/18 08:17:42;;;;;;;13.77;2.90;;;4.10;99.90;;;;;;6220685;23;20035;-77
2022/01/18 08:20:10;;;;;;;12.73;2.72;;;4.10;99.90;;;;;;6220592;23;20016;-79
2022/01/18 08:22:36;;;;;;;15.70;3.00;;;4.10;99.90;;;;;;6220534;23;20043;-76
2022/01/18 08:25:02;;;;;;;12.35;3.47;;;4.10;99.90;;;;;;6220650;23;20363;-76
2022/01/18 08:27:28;;;;;;;9.88;3.25;;;4.10;99.90;;;;;;6220605;23;20052;-75
2022/01/18 08:29:53;;;;;;;15.98;4.28;;;4.10;99.90;;;;;;6220715;23;20020;-77
2022/01/18 08:32:19;;;;;;;14.38;3.25;;;4.10;99.90;;;;;;6220521;23;20012;-77
2022/01/18 08:34:45;;;;;;;13.57;3.45;;;4.10;99.90;;;;;;6219619;23;20016;-77
2022/01/18 08:37:11;;;;;;;16.55;3.35;;;4.10;99.90;;;;;;6246919;23;20036;-77
2022/01/18 08:39:37;;;;;;;13.98;3.63;;;4.20;99.90;;;;;;6220135;23;20082;-77
2022/01/18 08:42:03;;;;;;;13.00;3.42;;;4.20;99.90;;;;;;6220855;23;20428;-76
2022/01/18 08:44:29;;;;;;;15.15;3.67;;;4.20;99.90;;;;;;6247491;23;20091;-79
2022/01/18 08:46:55;;;;;;;17.45;6.57;;;4.30;99.90;;;;;;6244341;23;20016;-77
2022/01/18 08:49:21;;;;;;;25.42;5.53;;;4.30;99.90;;;;;;6219538;23;20103;-77
2022/01/18 08:51:46;;;;;;;14.93;4.75;;;4.40;99.90;;;;;;6220319;23;20023;-77
2022/01/18 08:54:12;;;;;;;18.33;5.88;;;4.40;99.90;;;;;;6219937;23;20020;-76
2022/01/18 08:56:38;;;;;;;18.38;6.10;;;4.50;99.90;;;;;;6220828;23;20114;-77
2022/01/18 08:59:03;;;;;;;14.40;5.88;;;4.60;99.90;;;;;;6219861;23;20016;-77
2022/01/18 09:01:29;;;;;;;21.23;6.10;;;4.70;99.90;;;;;;6219200;23;20443;-77
2022/01/18 09:03:55;;;;;;;17.77;5.80;;;4.70;99.90;;;;;;6218633;23;20444;-76
2022/01/18 09:06:23;;;;;;;9.88;4.25;;;4.80;99.90;;;;;;6247121;23;20024;-77
2022/01/18 09:08:55;;;;;;;8.93;4.05;;;4.80;99.90;;;;;;6220126;23;20020;-77
2022/01/18 09:11:24;;;;;;;10.25;4.85;;;4.90;99.90;;;;;;6247499;23;20023;-76
2022/01/18 09:13:52;;;;;;;8.27;3.90;;;4.90;99.90;;;;;;6220105;23;20083;-76
2022/01/18 09:16:19;;;;;;;8.13;4.00;;;4.90;99.90;;;;;;6220169;23;20012;-77
2022/01/18 09:18:45;;;;;;;9.00;4.40;;;4.90;99.90;;;;;;6219987;23;20016;-76
2022/01/18 09:21:11;;;;;;;11.20;5.20;;;4.90;99.90;;;;;;6220027;23;20020;-78
2022/01/18 09:23:39;;;;;;;12.85;5.82;;;4.90;99.90;;;;;;6220239;23;20015;-77
2022/01/18 09:26:06;;;;;;;14.23;6.20;;;5.00;99.90;;;;;;6220304;23;20023;-77
2022/01/18 09:28:31;;;;;;;18.05;5.82;;;4.90;99.90;;;;;;6220145;23;20016;-77
2022/01/18 09:30:57;;;;;;;15.52;6.10;;;5.00;99.90;;;;;;6247419;23;20050;-77
2022/01/18 09:33:23;;;;;;;15.15;6.50;;;5.00;99.90;;;;;;6246794;23;20070;-77
2022/01/18 09:35:48;;;;;;;17.27;6.97;;;5.00;99.90;;;;;;6247335;23;20047;-77
2022/01/18 09:38:14;;;;;;;16.30;7.05;;;5.00;99.90;;;;;;6247264;23;20004;-78
2022/01/18 09:40:43;;;;;;;17.38;7.97;;;5.00;99.90;;;;;;6220040;23;20058;-78
2022/01/18 09:43:11;;;;;;;17.17;7.72;;;5.10;99.90;;;;;;6220129;23;20012;-78
2022/01/18 09:45:39;;;;;;;21.02;8.02;;;5.20;99.90;;;;;;6220689;23;20023;-78
2022/01/18 09:48:05;;;;;;;23.55;8.98;;;5.20;99.90;;;;;;6247013;23;20015;-78
2022/01/18 09:50:33;;;;;;;25.77;7.50;;;5.30;99.90;;;;;;6220075;23;20035;-78
2022/01/18 09:53:01;;;;;;;21.48;6.80;;;5.40;99.90;;;;;;6219987;23;20054;-78
2022/01/18 09:55:30;;;;;;;19.88;5.60;;;5.40;99.90;;;;;;6219906;23;20091;-78
2022/01/18 09:57:57;;;;;;;21.13;5.13;;;5.40;99.90;;;;;;6219877;23;20016;-78
2022/01/18 10:00:29;;;;;;;18.38;5.55;;;5.50;99.90;;;;;;6219881;23;20044;-78
2022/01/18 10:02:55;;;;;;;16.08;5.65;;;5.50;99.90;;;;;;6247109;23;20012;-78
2022/01/18 10:05:31;;;;;;;19.92;6.60;;;5.50;99.90;;;;;;6219795;23;20024;-78
2022/01/18 10:08:08;;;;;;;15.15;5.72;;;5.50;99.90;;;;;;6246849;23;20020;-78
2022/01/18 10:10:57;;;;;;;15.32;5.57;;;5.60;99.90;;;;;;6246725;23;20020;-78
2022/01/18 10:13:34;;;;;;;14.50;5.50;;;5.60;99.90;;;;;;6219610;23;20383;-78
2022/01/18 10:16:07;;;;;;;22.38;5.85;;;5.60;99.90;;;;;;6219822;23;20086;-78
2022/01/18 10:18:48;;;;;;;19.30;5.38;;;5.60;99.90;;;;;;6219596;23;20014;-78
2022/01/18 10:21:36;;;;;;;18.67;6.15;;;5.60;99.90;;;;;;6219463;23;20321;-78
2022/01/18 10:24:20;;;;;;;22.25;5.65;;;5.70;99.90;;;;;;6219683;23;20020;-78
2022/01/18 10:26:47;;;;;;;15.25;5.07;;;5.70;99.90;;;;;;6219617;23;20091;-78
2022/01/18 10:29:14;;;;;;;16.40;3.25;;;5.70;99.90;;;;;;6219412;23;20066;-78
2022/01/18 10:31:54;;;;;;;11.90;4.43;;;5.70;99.90;;;;;;6219486;23;20317;-78
2022/01/18 10:37:20;;;;;;;13.07;4.10;;;5.60;99.90;;;;;;6219637;23;20016;-78
2022/01/18 10:39:52;;;;;;;16.38;4.55;;;5.70;99.90;;;;;;6219513;23;20020;-78
2022/01/18 10:42:27;;;;;;;13.95;3.80;;;5.70;99.90;;;;;;6246714;23;20044;-78
2022/01/18 10:45:12;;;;;;;13.70;4.07;;;5.80;99.90;;;;;;6219690;23;20027;-78
2022/01/18 10:47:40;;;;;;;11.07;3.45;;;5.80;99.90;;;;;;6246435;23;20023;-78
2022/01/18 10:50:12;;;;;;;12.02;2.97;;;5.80;99.90;;;;;;6219610;23;20055;-78
2022/01/18 10:52:38;;;;;;;8.73;3.38;;;5.80;99.90;;;;;;6219457;23;20012;-78
2022/01/18 10:55:05;;;;;;;12.35;4.07;;;5.80;99.90;;;;;;6219452;23;20087;-78
2022/01/18 10:57:36;;;;;;;11.32;3.60;;;5.90;99.90;;;;;;6219491;23;20099;-78
2022/01/18 11:00:22;;;;;;;13.00;3.75;;;5.90;99.90;;;;;;6219166;23;20428;-78
2022/01/18 11:02:50;;;;;;;9.90;3.58;;;5.90;99.90;;;;;;6246088;23;20511;-78
2022/01/18 11:05:25;;;;;;;13.25;3.63;;;6.00;99.90;;;;;;6246511;23;20036;-78
2022/01/18 11:07:53;;;;;;;14.45;4.03;;;6.00;99.90;;;;;;6219302;23;20028;-78
2022/01/18 11:10:21;;;;;;;12.00;4.07;;;6.00;99.90;;;;;;6219319;23;20444;-78
2022/01/18 11:12:46;;;;;;;12.80;4.30;;;6.00;99.90;;;;;;6219326;23;20020;-78
2022/01/18 11:15:17;;;;;;;10.68;3.80;;;6.00;99.90;;;;;;6219354;23;20027;-78
2022/01/18 11:17:50;;;;;;;10.70;3.50;;;6.00;99.90;;;;;;6219347;23;20020;-78
2022/01/18 11:20:20;;;;;;;17.90;4.10;;;6.00;99.90;;;;;;6219323;23;20028;-78
2022/01/18 11:22:48;;;;;;;17.05;7.57;;;6.10;99.90;;;;;;6246065;23;20474;-78
2022/01/18 11:25:14;;;;;;;17.15;4.47;;;6.10;99.90;;;;;;6219359;23;20024;-78
2022/01/18 11:27:46;;;;;;;14.10;6.22;;;6.10;99.90;;;;;;6219404;23;20097;-78
2022/01/18 11:30:12;;;;;;;20.45;6.65;;;6.10;99.90;;;;;;6219265;23;20030;-78
2022/01/18 11:32:39;;;;;;;17.40;6.25;;;6.10;99.90;;;;;;6246436;23;20016;-78
2022/01/18 11:35:07;;;;;;;15.65;6.05;;;6.10;99.90;;;;;;6219169;23;20047;-78
2022/01/18 11:38:02;;;;;;;21.70;5.43;;;6.10;99.90;;;;;;6219166;23;20027;-77
2022/01/18 11:40:48;;;;;;;15.45;4.80;;;6.00;99.90;;;;;;6219146;23;20024;-78
2022/01/18 11:43:24;;;;;;;20.92;5.75;;;6.10;99.90;;;;;;6219137;23;20067;-77
2022/01/18 11:45:51;;;;;;;14.48;5.80;;;6.10;99.90;;;;;;6246399;23;20024;-78
2022/01/18 11:48:23;;;;;;;12.07;5.57;;;6.10;99.90;;;;;;6219191;23;20325;-77
2022/01/18 11:50:50;;;;;;;14.38;5.65;;;6.10;99.90;;;;;;6219225;23;20020;-77
2022/01/18 11:53:25;;;;;;;16.80;5.95;;;6.10;99.90;;;;;;6219038;23;20023;-77
2022/01/18 11:56:00;;;;;;;15.02;5.45;;;6.10;99.90;;;;;;6219258;23;20012;-78
2022/01/18 11:58:27;;;;;;;14.60;5.40;;;6.20;99.90;;;;;;6219153;23;20020;-77
2022/01/18 12:00:59;;;;;;;19.75;8.00;;;6.20;99.90;;;;;;6219048;23;20020;-78
2022/01/18 12:03:27;;;;;;;15.97;6.00;;;6.20;99.90;;;;;;6219145;23;20012;-82
2022/01/18 12:05:59;;;;;;;14.77;5.43;;;6.20;99.90;;;;;;6218942;23;20326;-82
2022/01/18 12:08:44;;;;;;;20.13;5.65;;;6.20;99.90;;;;;;6219211;23;20021;-82
2022/01/18 12:11:33;;;;;;;24.38;6.65;;;6.30;99.90;;;;;;6219515;23;20510;-80
2022/01/18 12:14:00;;;;;;;23.55;7.43;;;6.20;99.90;;;;;;6220794;23;20078;-80
2022/01/18 12:16:29;;;;;;;21.15;6.30;;;6.30;99.90;;;;;;6248000;23;20008;-80
2022/01/18 12:18:57;;;;;;;23.35;6.28;;;6.30;99.90;;;;;;6220758;23;20020;-80
2022/01/18 12:21:27;;;;;;;13.57;6.35;;;6.30;99.90;;;;;;6248007;23;20016;-80
2022/01/18 12:23:54;;;;;;;21.35;6.72;;;6.40;99.90;;;;;;6247507;23;20066;-80
2022/01/18 12:26:34;;;;;;;14.82;6.90;;;6.30;99.90;;;;;;6220702;23;20094;-80
2022/01/18 12:34:31;;;;;;;19.25;6.43;;;6.30;99.90;;;;;;6220736;23;20016;-79
2022/01/18 12:37:39;;;;;;;15.95;6.20;;;6.30;99.90;;;;;;6220736;23;20325;-80
2022/01/18 12:45:09;;;;;;;20.02;6.20;;;6.20;99.90;;;;;;6221104;23;20183;-80
2022/01/18 12:47:37;;;;;;;20.52;6.25;;;6.30;99.90;;;;;;6220666;23;20020;-80
2022/01/18 12:50:08;;;;;;;19.75;6.13;;;6.30;99.90;;;;;;6220623;23;20024;-80
2022/01/18 12:52:58;;;;;;;15.85;5.78;;;6.30;99.90;;;;;;6220609;23;20016;-80
2022/01/18 12:55:54;;;;;;;15.63;6.32;;;6.20;99.90;;;;;;6247242;23;20340;-80
2022/01/18 12:58:35;;;;;;;14.18;5.15;;;6.20;99.90;;;;;;6210696;23;20020;-80
2022/01/18 13:01:04;;;;;;;17.65;5.43;;;6.10;99.90;;;;;;6220369;23;20016;-80
2022/01/18 13:03:45;;;;;;;18.98;7.07;;;6.10;99.90;;;;;;6247653;23;20016;-80
2022/01/18 13:06:13;;;;;;;17.40;5.80;;;6.10;99.90;;;;;;6220246;23;20016;-80
2022/01/18 13:08:56;;;;;;;12.80;5.28;;;6.10;99.90;;;;;;6220446;23;20026;-80
2022/01/18 13:11:27;;;;;;;19.60;6.30;;;6.20;99.90;;;;;;6220397;23;20044;-80
2022/01/18 13:14:03;;;;;;;15.52;6.35;;;6.20;99.90;;;;;;6220441;23;20405;-80
2022/01/18 13:27:16;;;;;;;16.92;6.63;;;6.10;99.90;;;;;;6247476;23;20047;-80
2022/01/18 13:29:43;;;;;;;17.40;6.03;;;6.10;99.90;;;;;;6220376;23;20348;-80
2022/01/18 13:32:19;;;;;;;14.43;5.95;;;6.10;99.90;;;;;;6220238;23;20024;-81
2022/01/18 13:34:55;;;;;;;24.00;7.10;;;6.00;99.90;;;;;;6220238;23;20441;-81
2022/01/18 13:37:26;;;;;;;15.43;5.95;;;6.10;99.90;;;;;;6220196;23;20459;-81
2022/01/18 13:39:54;;;;;;;22.23;6.18;;;6.10;99.90;;;;;;6220074;23;20020;-81
2022/01/18 13:42:33;;;;;;;15.65;6.07;;;6.10;99.90;;;;;;6247356;23;20016;-81
2022/01/18 13:45:17;;;;;;;18.23;5.95;;;6.10;99.90;;;;;;6220176;23;20082;-81
2022/01/18 13:48:02;;;;;;;16.38;6.32;;;6.10;99.90;;;;;;6219792;23;20024;-81
2022/01/18 13:50:35;;;;;;;18.58;6.65;;;6.00;99.90;;;;;;6220016;23;20056;-81
2022/01/18 13:53:05;;;;;;;13.63;5.70;;;6.00;99.90;;;;;;6220593;23;20024;-81
2022/01/18 13:55:32;;;;;;;22.70;6.03;;;6.00;99.90;;;;;;6220339;23;20043;-80
2022/01/18 13:58:00;;;;;;;25.00;6.13;;;6.00;99.90;;;;;;6246976;23;20012;-80
2022/01/18 14:00:27;;;;;;;19.77;6.68;;;6.00;99.90;;;;;;6219768;23;20065;-80
2022/01/18 14:02:54;;;;;;;16.38;5.93;;;6.00;99.90;;;;;;6219862;23;20443;-82
2022/01/18 14:05:21;;;;;;;19.40;6.10;;;5.90;99.90;;;;;;6219829;23;20023;-81
2022/01/18 14:08:03;;;;;;;17.10;6.13;;;5.90;99.90;;;;;;6220364;23;20031;-80
2022/01/18 14:10:28;;;;;;;20.85;7.60;;;6.00;99.90;;;;;;6246941;23;20074;-80
2022/01/18 14:12:55;;;;;;;24.55;7.40;;;6.00;99.90;;;;;;6219861;23;20024;-81
2022/01/18 14:15:41;;;;;;;18.33;6.63;;;6.00;99.90;;;;;;6219772;23;20016;-81
2022/01/18 14:18:07;;;;;;;17.33;6.20;;;6.00;99.90;;;;;;6219935;23;20020;-81
2022/01/18 14:20:34;;;;;;;20.10;6.43;;;6.00;99.90;;;;;;6219618;23;20379;-81
2022/01/18 14:23:00;;;;;;;19.20;6.25;;;5.90;99.90;;;;;;6219652;23;20022;-81
2022/01/18 14:25:33;;;;;;;19.77;7.40;;;5.80;99.90;;;;;;6219663;23;20040;-81